Time;durP1;ratioP1;P1;durP2;ratioP2;P2;SDS_P1;SDS_P2;PMS_P1;PMS_P2;Temp;Humidity;BMP_temperature;BMP_pressure;BME280_temperature;BME280_humidity;BME280_pressure;Samples;Min_cycle;Max_cycle;Signal;HPM_P1;HPM_P2
2022/03/29 00:01:58;;;;;;;22.98;8.45;;;;;;;;;;5134640;27;20213;-72
2022/03/29 00:04:24;;;;;;;16.13;6.28;;;;;;;;;;5129252;27;20042;-72
2022/03/29 00:06:51;;;;;;;16.20;7.90;;;;;;;;;;5133333;27;20620;-74
2022/03/29 00:09:17;;;;;;;17.75;7.43;;;;;;;;;;5117113;27;20784;-73
2022/03/29 00:11:44;;;;;;;14.70;7.32;;;;;;;;;;5115441;27;20119;-73
2022/03/29 00:14:12;;;;;;;17.15;9.32;;;;;;;;;;5132016;27;20868;-73
2022/03/29 00:16:38;;;;;;;17.67;7.30;;;;;;;;;;5129974;27;20081;-73
2022/03/29 00:19:04;;;;;;;14.77;7.53;;;;;;;;;;5112111;27;20852;-73
2022/03/29 00:21:31;;;;;;;14.90;7.55;;;;;;;;;;5134450;27;20041;-73
2022/03/29 00:23:57;;;;;;;16.38;9.07;;;;;;;;;;5131920;27;20115;-73
2022/03/29 00:26:23;;;;;;;18.95;9.73;;;;;;;;;;5134647;27;20051;-73
2022/03/29 00:28:49;;;;;;;17.40;7.80;;;;;;;;;;5132296;27;20045;-73
2022/03/29 00:31:22;;;;;;;18.38;7.95;;;;;;;;;;5133458;27;20564;-73
2022/03/29 00:33:49;;;;;;;16.52;7.28;;;;;;;;;;5134923;27;20059;-73
2022/03/29 00:36:15;;;;;;;16.63;9.10;;;;;;;;;;5131215;27;20581;-73
2022/03/29 00:38:41;;;;;;;18.33;8.27;;;;;;;;;;5134794;27;20043;-73
2022/03/29 00:41:10;;;;;;;16.58;7.95;;;;;;;;;;5136537;27;20073;-73
2022/03/29 00:43:36;;;;;;;20.33;9.20;;;;;;;;;;5114120;27;20070;-73
2022/03/29 00:46:03;;;;;;;16.98;7.35;;;;;;;;;;5131148;27;20195;-73
2022/03/29 00:48:29;;;;;;;19.80;9.75;;;;;;;;;;5129419;27;20045;-73
2022/03/29 00:50:56;;;;;;;20.38;8.60;;;;;;;;;;5130453;27;20118;-72
2022/03/29 00:53:23;;;;;;;20.80;8.57;;;;;;;;;;5116679;27;20881;-73
2022/03/29 00:55:49;;;;;;;16.98;8.52;;;;;;;;;;5130644;27;20071;-73
2022/03/29 00:58:16;;;;;;;16.80;8.07;;;;;;;;;;5130933;27;20512;-72
2022/03/29 01:00:42;;;;;;;20.80;9.68;;;;;;;;;;5127584;27;20031;-73
2022/03/29 01:03:08;;;;;;;20.95;8.55;;;;;;;;;;5136669;27;20047;-72
2022/03/29 01:05:36;;;;;;;16.63;8.77;;;;;;;;;;5114842;27;20526;-74
2022/03/29 01:08:02;;;;;;;19.80;7.78;;;;;;;;;;5134985;27;20040;-72
2022/03/29 01:10:28;;;;;;;18.20;7.40;;;;;;;;;;5134021;27;20039;-72
2022/03/29 01:12:56;;;;;;;22.60;10.40;;;;;;;;;;5111195;27;20559;-72
2022/03/29 01:15:26;;;;;;;15.65;7.93;;;;;;;;;;5128683;27;20111;-73
2022/03/29 01:17:53;;;;;;;18.55;8.50;;;;;;;;;;5113455;27;20283;-73
2022/03/29 01:20:27;;;;;;;21.77;10.18;;;;;;;;;;5133411;27;20088;-72
2022/03/29 01:22:53;;;;;;;20.23;9.77;;;;;;;;;;5129760;27;20093;-72
2022/03/29 01:25:20;;;;;;;19.33;8.95;;;;;;;;;;5130874;27;20086;-72
2022/03/29 01:27:48;;;;;;;20.23;8.60;;;;;;;;;;5127638;27;20039;-73
2022/03/29 01:30:14;;;;;;;18.25;9.18;;;;;;;;;;5112501;27;20035;-72
2022/03/29 01:32:41;;;;;;;22.85;9.07;;;;;;;;;;5132716;27;20648;-73
2022/03/29 01:35:07;;;;;;;19.52;10.25;;;;;;;;;;5112477;27;20123;-72
2022/03/29 01:37:34;;;;;;;22.77;10.07;;;;;;;;;;5117553;27;20050;-73
2022/03/29 01:40:04;;;;;;;24.48;10.52;;;;;;;;;;5116886;27;20027;-73
2022/03/29 01:42:30;;;;;;;20.63;8.85;;;;;;;;;;5116917;27;20035;-73
2022/03/29 01:44:56;;;;;;;19.38;8.20;;;;;;;;;;5127939;27;20039;-73
2022/03/29 01:47:22;;;;;;;19.55;9.38;;;;;;;;;;5128955;27;20061;-72
2022/03/29 01:49:49;;;;;;;20.35;9.63;;;;;;;;;;5134992;27;20118;-73
2022/03/29 01:52:15;;;;;;;26.05;11.63;;;;;;;;;;5112025;27;20047;-72
2022/03/29 01:54:41;;;;;;;23.63;9.80;;;;;;;;;;5123787;27;20114;-72
2022/03/29 01:57:07;;;;;;;23.25;10.45;;;;;;;;;;5134274;27;20088;-72
2022/03/29 02:00:30;;;;;;;17.77;8.60;;;;;;;;;;5132640;27;20042;-73
2022/03/29 02:02:19;;;;;;;24.13;11.93;;;;;;;;;;5136644;27;20049;-73
2022/03/29 02:04:45;;;;;;;20.52;9.02;;;;;;;;;;5119883;27;20045;-72
2022/03/29 02:07:12;;;;;;;19.20;9.27;;;;;;;;;;5116338;27;20043;-72
2022/03/29 02:09:38;;;;;;;23.00;9.30;;;;;;;;;;5132390;27;20035;-73
2022/03/29 02:12:06;;;;;;;17.67;8.35;;;;;;;;;;5120056;27;20415;-73
2022/03/29 02:14:34;;;;;;;15.30;8.07;;;;;;;;;;5134095;27;20096;-73
2022/03/29 02:17:00;;;;;;;23.42;8.68;;;;;;;;;;5113836;27;20522;-72
2022/03/29 02:19:26;;;;;;;17.90;8.13;;;;;;;;;;5128689;27;20039;-72
2022/03/29 02:21:53;;;;;;;15.38;6.95;;;;;;;;;;5117598;27;20040;-73
2022/03/29 02:24:19;;;;;;;15.68;7.35;;;;;;;;;;5131684;27;20135;-73
2022/03/29 02:26:45;;;;;;;18.98;8.27;;;;;;;;;;5131160;27;20044;-72
2022/03/29 02:29:11;;;;;;;21.00;8.30;;;;;;;;;;5134054;27;20118;-72
2022/03/29 02:31:37;;;;;;;19.05;8.65;;;;;;;;;;5131839;27;20540;-72
2022/03/29 02:34:03;;;;;;;21.15;8.60;;;;;;;;;;5114192;27;20063;-73
2022/03/29 02:36:29;;;;;;;22.13;8.88;;;;;;;;;;5132654;27;20478;-72
2022/03/29 02:38:55;;;;;;;21.75;8.02;;;;;;;;;;5135443;27;20039;-73
2022/03/29 02:41:21;;;;;;;16.88;8.20;;;;;;;;;;5116375;27;20045;-72
2022/03/29 02:43:47;;;;;;;20.17;8.07;;;;;;;;;;5132572;27;20044;-72
2022/03/29 02:46:13;;;;;;;17.85;7.78;;;;;;;;;;5131342;27;22051;-73
2022/03/29 02:48:40;;;;;;;16.67;7.78;;;;;;;;;;5116223;27;20103;-72
2022/03/29 02:51:06;;;;;;;22.83;9.48;;;;;;;;;;5127518;27;20127;-72
2022/03/29 02:53:32;;;;;;;23.98;9.35;;;;;;;;;;5129567;27;20043;-73
2022/03/29 02:55:59;;;;;;;17.08;7.50;;;;;;;;;;5133743;27;20692;-72
2022/03/29 02:58:25;;;;;;;17.17;8.25;;;;;;;;;;5132460;27;20035;-72
2022/03/29 03:00:51;;;;;;;14.65;7.72;;;;;;;;;;5133101;27;20541;-72
2022/03/29 03:03:18;;;;;;;19.00;8.00;;;;;;;;;;5134825;27;21306;-72
2022/03/29 03:05:44;;;;;;;21.48;8.82;;;;;;;;;;5133541;27;20035;-72
2022/03/29 03:08:10;;;;;;;22.08;9.20;;;;;;;;;;5116069;27;20035;-72
2022/03/29 03:10:36;;;;;;;17.83;8.27;;;;;;;;;;5129535;27;20096;-72
2022/03/29 03:13:02;;;;;;;19.20;8.07;;;;;;;;;;5130902;27;20040;-72
2022/03/29 03:15:29;;;;;;;15.27;8.40;;;;;;;;;;5131330;27;20039;-72
2022/03/29 03:17:55;;;;;;;20.73;9.27;;;;;;;;;;5113677;27;20070;-72
2022/03/29 03:20:21;;;;;;;24.33;9.32;;;;;;;;;;5132873;27;20159;-72
2022/03/29 03:22:48;;;;;;;16.70;8.90;;;;;;;;;;5134817;27;20075;-72
2022/03/29 03:25:14;;;;;;;22.33;8.88;;;;;;;;;;5133064;27;20043;-72
2022/03/29 03:27:40;;;;;;;21.20;9.00;;;;;;;;;;5118714;27;20084;-72
2022/03/29 03:30:08;;;;;;;16.45;8.45;;;;;;;;;;5137962;27;20079;-72
2022/03/29 03:32:34;;;;;;;16.50;8.23;;;;;;;;;;5117675;27;20581;-72
2022/03/29 03:35:00;;;;;;;22.60;10.45;;;;;;;;;;5133098;27;20114;-72
2022/03/29 03:37:26;;;;;;;22.58;11.20;;;;;;;;;;5136032;27;20047;-72
2022/03/29 03:39:53;;;;;;;16.90;9.02;;;;;;;;;;5134115;27;20118;-72
2022/03/29 03:42:19;;;;;;;25.10;9.20;;;;;;;;;;5134502;27;20047;-72
2022/03/29 03:44:45;;;;;;;18.83;8.80;;;;;;;;;;5130340;27;20581;-72
2022/03/29 03:47:11;;;;;;;18.83;8.45;;;;;;;;;;5130975;27;20046;-72
2022/03/29 03:49:38;;;;;;;22.00;9.75;;;;;;;;;;5134588;27;20043;-72
2022/03/29 03:52:04;;;;;;;21.10;10.90;;;;;;;;;;5133239;27;20043;-72
2022/03/29 03:54:32;;;;;;;25.77;9.35;;;;;;;;;;5131650;27;20039;-72
2022/03/29 03:56:58;;;;;;;16.95;8.93;;;;;;;;;;5116864;27;20077;-72
2022/03/29 03:59:24;;;;;;;21.20;9.20;;;;;;;;;;5117036;27;20473;-72
2022/03/29 04:01:50;;;;;;;23.05;8.70;;;;;;;;;;5102237;27;20053;-72
2022/03/29 04:04:16;;;;;;;22.77;11.07;;;;;;;;;;5084870;28;20170;-72
2022/03/29 04:06:42;;;;;;;25.33;10.80;;;;;;;;;;5087649;28;20561;-72
2022/03/29 04:09:08;;;;;;;23.80;10.82;;;;;;;;;;5087815;27;20040;-72
2022/03/29 04:11:34;;;;;;;18.50;8.45;;;;;;;;;;5087767;28;20048;-72
2022/03/29 04:14:01;;;;;;;23.83;9.10;;;;;;;;;;5088043;28;20039;-72
2022/03/29 04:16:27;;;;;;;17.85;9.00;;;;;;;;;;5085871;28;20093;-72
2022/03/29 04:18:53;;;;;;;23.60;11.02;;;;;;;;;;5092006;27;20485;-72
2022/03/29 04:21:19;;;;;;;23.58;10.07;;;;;;;;;;5082765;28;20044;-72
2022/03/29 04:23:45;;;;;;;31.95;10.98;;;;;;;;;;5087098;27;20614;-72
2022/03/29 04:26:11;;;;;;;32.35;12.07;;;;;;;;;;5088355;27;20040;-72
2022/03/29 04:28:37;;;;;;;25.00;10.52;;;;;;;;;;5090070;28;20047;-72
2022/03/29 04:31:04;;;;;;;23.48;9.35;;;;;;;;;;5086517;27;20045;-72
2022/03/29 04:33:30;;;;;;;27.10;11.68;;;;;;;;;;5090365;27;20051;-72
2022/03/29 04:35:56;;;;;;;22.88;9.23;;;;;;;;;;5089787;27;20901;-72
2022/03/29 04:38:25;;;;;;;22.05;10.25;;;;;;;;;;5087663;27;20125;-72
2022/03/29 04:40:52;;;;;;;33.20;11.48;;;;;;;;;;5093580;28;20036;-72
2022/03/29 04:43:18;;;;;;;19.92;9.40;;;;;;;;;;5088239;27;20483;-72
2022/03/29 04:45:44;;;;;;;22.83;8.85;;;;;;;;;;5082353;28;20051;-72
2022/03/29 04:48:11;;;;;;;22.00;9.48;;;;;;;;;;5085162;28;20721;-72
2022/03/29 04:50:38;;;;;;;20.60;9.82;;;;;;;;;;5084771;27;20040;-72
2022/03/29 04:53:04;;;;;;;23.00;11.32;;;;;;;;;;5089799;28;20063;-72
2022/03/29 04:55:30;;;;;;;25.52;9.98;;;;;;;;;;5088668;28;20036;-72
2022/03/29 04:57:57;;;;;;;19.30;10.15;;;;;;;;;;5088513;28;20086;-72
2022/03/29 05:00:23;;;;;;;18.73;9.63;;;;;;;;;;5086129;28;20711;-72
2022/03/29 05:02:49;;;;;;;26.70;10.23;;;;;;;;;;5111230;27;20066;-71
2022/03/29 05:05:16;;;;;;;25.33;10.45;;;;;;;;;;5127686;27;20039;-72
2022/03/29 05:07:42;;;;;;;20.60;8.73;;;;;;;;;;5135999;27;20042;-72
2022/03/29 05:10:09;;;;;;;22.98;9.40;;;;;;;;;;5137218;27;20217;-72
2022/03/29 05:12:42;;;;;;;21.83;9.02;;;;;;;;;;5112814;27;20090;-72
2022/03/29 05:15:09;;;;;;;22.27;10.70;;;;;;;;;;5131812;27;20039;-73
2022/03/29 05:17:35;;;;;;;23.17;8.95;;;;;;;;;;5128073;27;21709;-72
2022/03/29 05:20:04;;;;;;;18.02;9.40;;;;;;;;;;5115438;27;20480;-73
2022/03/29 05:22:30;;;;;;;22.35;9.00;;;;;;;;;;5111682;27;20088;-80
2022/03/29 05:24:57;;;;;;;28.73;10.50;;;;;;;;;;5109935;27;20905;-73
2022/03/29 05:27:23;;;;;;;20.77;9.02;;;;;;;;;;5132348;27;20114;-71
2022/03/29 05:29:49;;;;;;;27.10;11.95;;;;;;;;;;5130930;27;20111;-72
2022/03/29 05:32:18;;;;;;;26.67;10.07;;;;;;;;;;5133316;27;20042;-72
2022/03/29 05:34:45;;;;;;;20.88;10.10;;;;;;;;;;5131499;27;20039;-72
2022/03/29 05:37:12;;;;;;;20.35;10.00;;;;;;;;;;5136188;27;20039;-73
2022/03/29 05:39:40;;;;;;;24.58;10.95;;;;;;;;;;5133723;27;20050;-73
2022/03/29 05:42:06;;;;;;;23.40;11.10;;;;;;;;;;5137800;27;20079;-73
2022/03/29 05:44:32;;;;;;;25.42;10.77;;;;;;;;;;5115818;27;20084;-73
2022/03/29 05:49:43;;;;;;;28.60;11.75;;;;;;;;;;5134139;27;20043;-72
2022/03/29 05:52:09;;;;;;;27.30;11.07;;;;;;;;;;5132803;27;20042;-73
2022/03/29 05:54:35;;;;;;;29.90;12.20;;;;;;;;;;5136365;27;20065;-74
2022/03/29 05:57:02;;;;;;;29.70;9.73;;;;;;;;;;5137400;27;20050;-74
2022/03/29 05:59:28;;;;;;;22.48;10.35;;;;;;;;;;5136146;27;20035;-73
2022/03/29 06:01:54;;;;;;;25.95;12.98;;;;;;;;;;5114115;27;20047;-73
2022/03/29 06:04:23;;;;;;;27.50;11.82;;;;;;;;;;5117696;27;20122;-73
2022/03/29 06:06:49;;;;;;;24.63;11.40;;;;;;;;;;5136915;27;20039;-72
2022/03/29 06:09:15;;;;;;;24.90;10.15;;;;;;;;;;5134524;27;20043;-72
2022/03/29 06:11:41;;;;;;;22.10;10.75;;;;;;;;;;5135773;27;20805;-72
2022/03/29 06:14:10;;;;;;;20.25;10.40;;;;;;;;;;5135653;27;20081;-70
2022/03/29 06:16:36;;;;;;;33.65;12.25;;;;;;;;;;5130829;27;20142;-72
2022/03/29 06:19:02;;;;;;;22.48;10.60;;;;;;;;;;5115370;27;20036;-71
2022/03/29 06:21:28;;;;;;;25.20;11.18;;;;;;;;;;5111998;27;20039;-72
2022/03/29 06:23:54;;;;;;;25.90;11.70;;;;;;;;;;5135679;27;20051;-72
2022/03/29 06:26:20;;;;;;;26.92;11.63;;;;;;;;;;5133616;27;20049;-71
2022/03/29 06:28:47;;;;;;;20.88;10.68;;;;;;;;;;5113950;27;20035;-72
2022/03/29 06:31:16;;;;;;;23.85;11.02;;;;;;;;;;5132757;27;20528;-77
2022/03/29 06:33:42;;;;;;;26.92;10.68;;;;;;;;;;5107576;27;20060;-71
2022/03/29 06:36:08;;;;;;;22.77;9.85;;;;;;;;;;5137082;27;21501;-71
2022/03/29 06:38:34;;;;;;;29.98;11.73;;;;;;;;;;5138989;27;20046;-72
2022/03/29 06:41:00;;;;;;;24.17;11.68;;;;;;;;;;5138369;27;20054;-72
2022/03/29 06:43:27;;;;;;;27.65;11.80;;;;;;;;;;5135974;27;20039;-73
2022/03/29 06:45:53;;;;;;;31.73;11.07;;;;;;;;;;5132740;27;20118;-72
2022/03/29 06:48:19;;;;;;;30.33;12.80;;;;;;;;;;5128080;27;20051;-74
2022/03/29 06:50:45;;;;;;;29.30;11.65;;;;;;;;;;5119174;27;20043;-73
2022/03/29 06:53:11;;;;;;;27.55;13.20;;;;;;;;;;5137381;27;20031;-73
2022/03/29 06:55:37;;;;;;;28.27;12.07;;;;;;;;;;5137173;27;20039;-73
2022/03/29 06:58:04;;;;;;;27.77;11.18;;;;;;;;;;5134640;27;20073;-73
2022/03/29 07:00:30;;;;;;;23.17;10.35;;;;;;;;;;5119909;27;20043;-73
2022/03/29 07:02:56;;;;;;;29.92;11.13;;;;;;;;;;5120894;27;20552;-73
2022/03/29 07:05:22;;;;;;;28.70;10.70;;;;;;;;;;5119989;27;20129;-72
2022/03/29 07:07:50;;;;;;;29.55;12.18;;;;;;;;;;5138191;27;20038;-73
2022/03/29 07:13:02;;;;;;;25.30;12.02;;;;;;;;;;5134364;27;20154;-73
2022/03/29 07:15:28;;;;;;;26.50;12.27;;;;;;;;;;5117131;27;20047;-73
2022/03/29 07:17:55;;;;;;;35.63;13.00;;;;;;;;;;5135451;27;20046;-73
2022/03/29 07:20:22;;;;;;;27.52;11.82;;;;;;;;;;5131997;27;20047;-73
2022/03/29 07:22:49;;;;;;;21.70;11.65;;;;;;;;;;5120127;27;20036;-73
2022/03/29 07:25:18;;;;;;;27.10;12.20;;;;;;;;;;5117626;27;20675;-73
2022/03/29 07:27:44;;;;;;;31.08;13.38;;;;;;;;;;5133101;27;20575;-73
2022/03/29 07:30:10;;;;;;;27.40;11.57;;;;;;;;;;5136482;27;20045;-73
2022/03/29 07:32:47;;;;;;;26.23;13.07;;;;;;;;;;5136248;27;20579;-72
2022/03/29 07:35:14;;;;;;;25.55;11.02;;;;;;;;;;5121412;27;20047;-73
2022/03/29 07:37:41;;;;;;;28.70;12.18;;;;;;;;;;5137352;27;21233;-73
2022/03/29 07:40:08;;;;;;;23.65;11.45;;;;;;;;;;5134923;27;20042;-73
2022/03/29 07:42:35;;;;;;;24.92;10.65;;;;;;;;;;5135092;27;20031;-73
2022/03/29 07:45:03;;;;;;;25.80;12.82;;;;;;;;;;5134144;27;20046;-73
2022/03/29 07:47:29;;;;;;;24.80;11.52;;;;;;;;;;5137949;27;20047;-73
2022/03/29 07:49:55;;;;;;;31.02;12.75;;;;;;;;;;5116330;27;20039;-73
2022/03/29 07:52:21;;;;;;;28.33;11.93;;;;;;;;;;5120101;27;20559;-72
2022/03/29 07:54:48;;;;;;;32.88;12.88;;;;;;;;;;5138625;27;20833;-73
2022/03/29 07:57:14;;;;;;;26.05;9.95;;;;;;;;;;5135031;27;20219;-73
2022/03/29 07:59:40;;;;;;;26.95;12.32;;;;;;;;;;5135902;27;20043;-73
2022/03/29 08:02:10;;;;;;;29.95;12.57;;;;;;;;;;5134209;27;20097;-73
2022/03/29 08:04:36;;;;;;;22.90;10.48;;;;;;;;;;5135757;27;20093;-73
2022/03/29 08:07:02;;;;;;;30.10;13.45;;;;;;;;;;5135551;27;20532;-73
2022/03/29 08:09:28;;;;;;;26.00;10.57;;;;;;;;;;5137521;27;20119;-73
2022/03/29 08:11:57;;;;;;;35.90;13.40;;;;;;;;;;5140861;27;20046;-73
2022/03/29 08:14:25;;;;;;;25.58;12.68;;;;;;;;;;5117778;27;20130;-73
2022/03/29 08:16:53;;;;;;;29.10;11.75;;;;;;;;;;5120638;27;20046;-73
2022/03/29 08:19:19;;;;;;;21.13;9.25;;;;;;;;;;5116288;27;20456;-73
2022/03/29 08:21:49;;;;;;;21.73;10.50;;;;;;;;;;5136432;27;20047;-73
2022/03/29 08:24:16;;;;;;;29.02;13.35;;;;;;;;;;5136685;27;20050;-73
2022/03/29 08:26:43;;;;;;;26.40;12.88;;;;;;;;;;5133595;27;20087;-73
2022/03/29 08:29:09;;;;;;;20.77;10.82;;;;;;;;;;5132484;27;20040;-73
2022/03/29 08:31:35;;;;;;;29.60;11.98;;;;;;;;;;5137608;27;20109;-73
2022/03/29 08:34:01;;;;;;;27.85;11.35;;;;;;;;;;5133876;27;20031;-73
2022/03/29 08:36:27;;;;;;;25.13;11.40;;;;;;;;;;5132185;27;20411;-73
2022/03/29 08:38:53;;;;;;;27.88;12.40;;;;;;;;;;5116411;27;20043;-73
2022/03/29 08:41:19;;;;;;;25.20;11.57;;;;;;;;;;5134782;27;20035;-73
2022/03/29 08:43:45;;;;;;;26.02;11.77;;;;;;;;;;5117510;27;20050;-73
2022/03/29 08:46:11;;;;;;;28.58;11.25;;;;;;;;;;5134666;27;20035;-73
2022/03/29 08:48:37;;;;;;;27.00;13.38;;;;;;;;;;5116806;27;20043;-73
2022/03/29 08:51:05;;;;;;;26.60;11.73;;;;;;;;;;5134965;27;20046;-73
2022/03/29 08:53:31;;;;;;;30.48;11.80;;;;;;;;;;5136901;27;20130;-73
2022/03/29 08:55:57;;;;;;;31.92;13.05;;;;;;;;;;5133662;27;20043;-73
2022/03/29 08:58:24;;;;;;;32.70;13.57;;;;;;;;;;5132163;27;20045;-73
2022/03/29 09:00:50;;;;;;;28.92;12.43;;;;;;;;;;5137658;27;20842;-73
2022/03/29 09:03:17;;;;;;;27.63;13.10;;;;;;;;;;5137440;27;20075;-74
2022/03/29 09:05:43;;;;;;;24.98;11.95;;;;;;;;;;5115990;27;20047;-73
2022/03/29 09:08:11;;;;;;;25.30;11.73;;;;;;;;;;5134920;27;21271;-73
2022/03/29 09:10:48;;;;;;;28.42;13.43;;;;;;;;;;5120078;27;20123;-73
2022/03/29 09:13:27;;;;;;;24.23;11.18;;;;;;;;;;5129711;27;20165;-73
2022/03/29 09:15:55;;;;;;;28.17;12.30;;;;;;;;;;5131279;27;20043;-73
2022/03/29 09:18:21;;;;;;;27.00;12.02;;;;;;;;;;5135286;27;20080;-73
2022/03/29 09:20:47;;;;;;;28.00;13.38;;;;;;;;;;5134400;27;20050;-73
2022/03/29 09:23:14;;;;;;;22.13;12.02;;;;;;;;;;5133444;27;20043;-73
2022/03/29 09:25:48;;;;;;;31.63;12.60;;;;;;;;;;5129454;27;20509;-73
2022/03/29 09:28:21;;;;;;;23.55;11.93;;;;;;;;;;5116618;27;20039;-73
2022/03/29 09:30:47;;;;;;;31.95;13.48;;;;;;;;;;5135614;27;20056;-73
2022/03/29 09:33:20;;;;;;;25.17;11.60;;;;;;;;;;5116879;27;20043;-73
2022/03/29 09:35:57;;;;;;;27.50;12.90;;;;;;;;;;5133429;27;20645;-73
2022/03/29 09:38:36;;;;;;;26.42;13.25;;;;;;;;;;5133071;27;20039;-73
2022/03/29 09:41:03;;;;;;;26.48;12.10;;;;;;;;;;5136817;27;20038;-73
2022/03/29 09:43:30;;;;;;;26.40;13.40;;;;;;;;;;5133613;27;20051;-73
2022/03/29 09:45:59;;;;;;;25.17;13.25;;;;;;;;;;5132723;27;20040;-73
2022/03/29 09:48:25;;;;;;;27.13;11.32;;;;;;;;;;5131466;27;20043;-73
2022/03/29 09:50:56;;;;;;;25.27;10.85;;;;;;;;;;5117628;27;20549;-73
2022/03/29 09:53:38;;;;;;;17.02;9.40;;;;;;;;;;5117686;27;20081;-73
2022/03/29 09:56:04;;;;;;;27.65;10.05;;;;;;;;;;5130228;27;20050;-73
2022/03/29 09:58:30;;;;;;;22.88;9.68;;;;;;;;;;5134066;27;20043;-73
2022/03/29 10:00:57;;;;;;;22.60;10.10;;;;;;;;;;5117476;27;20036;-73
2022/03/29 10:03:25;;;;;;;20.83;9.80;;;;;;;;;;5132935;27;20475;-73
2022/03/29 10:05:52;;;;;;;19.90;9.13;;;;;;;;;;5119207;27;20038;-73
2022/03/29 10:11:07;;;;;;;20.25;9.38;;;;;;;;;;5133925;27;20055;-73
2022/03/29 10:13:36;;;;;;;21.40;9.48;;;;;;;;;;5116030;27;20050;-73
2022/03/29 10:16:02;;;;;;;19.17;8.70;;;;;;;;;;5116980;27;20048;-73
2022/03/29 10:18:28;;;;;;;18.65;10.32;;;;;;;;;;5122392;27;20100;-72
2022/03/29 10:20:56;;;;;;;19.33;9.65;;;;;;;;;;5137103;27;20588;-73
2022/03/29 10:23:24;;;;;;;25.90;10.48;;;;;;;;;;5137147;27;20074;-72
2022/03/29 10:25:53;;;;;;;19.75;10.02;;;;;;;;;;5134352;27;20105;-73
2022/03/29 10:28:21;;;;;;;26.73;13.05;;;;;;;;;;5137261;27;20593;-73
2022/03/29 10:30:47;;;;;;;24.83;10.88;;;;;;;;;;5139237;27;20035;-73
2022/03/29 10:33:23;;;;;;;22.70;10.73;;;;;;;;;;5136191;27;20043;-73
2022/03/29 10:36:02;;;;;;;23.40;11.05;;;;;;;;;;5138274;27;20077;-73
2022/03/29 10:38:46;;;;;;;22.85;11.13;;;;;;;;;;5139281;27;20039;-73
2022/03/29 10:41:33;;;;;;;15.93;8.07;;;;;;;;;;5117370;27;20080;-73
2022/03/29 10:44:08;;;;;;;16.55;7.97;;;;;;;;;;5137535;27;20118;-73
2022/03/29 10:46:38;;;;;;;22.33;9.52;;;;;;;;;;5136254;27;20554;-73
2022/03/29 10:49:23;;;;;;;17.77;9.70;;;;;;;;;;5135854;27;20108;-73
2022/03/29 10:51:54;;;;;;;19.58;8.05;;;;;;;;;;5117483;27;20118;-73
2022/03/29 10:54:29;;;;;;;21.73;10.07;;;;;;;;;;5132814;27;20040;-73
2022/03/29 10:57:03;;;;;;;18.25;8.63;;;;;;;;;;5119365;27;21264;-73
2022/03/29 10:59:30;;;;;;;22.85;8.40;;;;;;;;;;5134856;27;20783;-73
2022/03/29 11:02:15;;;;;;;21.98;8.90;;;;;;;;;;5139578;27;20518;-73
2022/03/29 11:05:13;;;;;;;21.75;9.52;;;;;;;;;;5139956;27;20039;-73
2022/03/29 11:07:40;;;;;;;15.15;8.32;;;;;;;;;;5103935;27;20059;-73
2022/03/29 11:10:12;;;;;;;21.88;8.50;;;;;;;;;;5119873;27;20035;-73
2022/03/29 11:12:38;;;;;;;;;;;;;;;;;;5135726;27;20610;-73
2022/03/29 11:15:23;;;;;;;16.60;7.70;;;;;;;;;;5134262;27;19927;-73
2022/03/29 11:17:49;;;;;;;14.70;7.70;;;;;;;;;;5117747;27;20046;-73
2022/03/29 11:20:29;;;;;;;18.90;9.15;;;;;;;;;;5134026;27;20551;-73
2022/03/29 11:22:57;;;;;;;15.80;7.72;;;;;;;;;;5131352;27;20039;-73
2022/03/29 11:25:23;;;;;;;19.33;7.22;;;;;;;;;;5120709;27;20047;-73
2022/03/29 11:27:49;;;;;;;12.23;7.45;;;;;;;;;;5131889;27;20529;-73
2022/03/29 11:30:15;;;;;;;17.90;8.98;;;;;;;;;;5117505;27;20042;-73
2022/03/29 11:32:46;;;;;;;14.02;6.85;;;;;;;;;;5119473;27;20043;-73
2022/03/29 11:35:12;;;;;;;18.15;6.90;;;;;;;;;;5119606;27;20065;-73
2022/03/29 11:37:40;;;;;;;16.65;6.75;;;;;;;;;;5119336;27;20054;-73
2022/03/29 11:40:07;;;;;;;15.77;7.82;;;;;;;;;;5130228;27;20031;-73
2022/03/29 11:42:49;;;;;;;22.00;10.70;;;;;;;;;;5130975;27;20039;-73
2022/03/29 11:45:16;;;;;;;43.08;20.73;;;;;;;;;;5136742;27;20112;-73
2022/03/29 11:47:58;;;;;;;18.13;9.60;;;;;;;;;;5134791;27;20119;-73
2022/03/29 11:50:28;;;;;;;17.65;10.20;;;;;;;;;;5134805;27;20043;-73
2022/03/29 11:52:54;;;;;;;16.35;9.85;;;;;;;;;;5118650;27;20032;-73
2022/03/29 11:55:20;;;;;;;19.33;9.18;;;;;;;;;;5117931;27;20039;-73
2022/03/29 11:57:46;;;;;;;16.40;9.15;;;;;;;;;;5119461;27;20585;-73
2022/03/29 12:00:27;;;;;;;21.58;9.80;;;;;;;;;;5134336;27;20602;-73
2022/03/29 12:02:53;;;;;;;19.85;10.02;;;;;;;;;;5135773;27;20078;-73
2022/03/29 12:05:27;;;;;;;17.13;8.80;;;;;;;;;;5137439;27;20036;-73
2022/03/29 12:08:03;;;;;;;17.75;9.88;;;;;;;;;;5134730;27;20551;-73
2022/03/29 12:10:30;;;;;;;14.80;8.60;;;;;;;;;;5134539;27;20104;-73
2022/03/29 12:12:56;;;;;;;16.83;6.35;;;;;;;;;;5116041;27;20150;-73
2022/03/29 12:15:23;;;;;;;16.60;8.18;;;;;;;;;;5135031;27;20239;-73
2022/03/29 12:20:41;;;;;;;14.18;7.40;;;;;;;;;;5136902;27;20043;-73
2022/03/29 13:53:23;;;;;;;15.73;5.85;;;;;;;;;;5134030;27;20072;-73
2022/03/29 13:55:53;;;;;;;14.65;6.47;;;;;;;;;;5136793;27;20560;-74
2022/03/29 13:58:19;;;;;;;13.85;6.50;;;;;;;;;;5138471;27;20524;-74
2022/03/29 14:00:46;;;;;;;17.92;6.20;;;;;;;;;;5137297;27;20050;-74
2022/03/29 14:03:13;;;;;;;21.38;6.35;;;;;;;;;;5138771;27;20043;-74
2022/03/29 14:05:40;;;;;;;23.77;9.23;;;;;;;;;;5137542;27;20035;-74
2022/03/29 14:08:10;;;;;;;17.73;7.65;;;;;;;;;;5138146;27;20131;-73
2022/03/29 14:10:36;;;;;;;51.80;17.10;;;;;;;;;;5119339;27;20112;-74
2022/03/29 14:13:04;;;;;;;32.45;12.98;;;;;;;;;;5138280;27;20040;-73
2022/03/29 14:15:30;;;;;;;17.52;6.68;;;;;;;;;;5137356;27;20047;-73
2022/03/29 14:17:57;;;;;;;19.83;7.60;;;;;;;;;;5138977;27;20041;-74
2022/03/29 14:20:24;;;;;;;29.10;11.20;;;;;;;;;;5118337;27;20055;-73
2022/03/29 14:22:50;;;;;;;26.42;10.20;;;;;;;;;;5121103;27;20509;-73
2022/03/29 14:25:17;;;;;;;22.40;7.47;;;;;;;;;;5120742;27;20138;-74
2022/03/29 14:27:44;;;;;;;22.63;7.80;;;;;;;;;;5120358;27;20463;-73
2022/03/29 14:30:13;;;;;;;21.33;5.45;;;;;;;;;;5140372;27;20042;-73
2022/03/29 14:32:40;;;;;;;11.25;5.00;;;;;;;;;;5135336;27;20043;-73
2022/03/29 14:35:06;;;;;;;10.95;5.18;;;;;;;;;;5134299;27;20031;-74
2022/03/29 14:37:36;;;;;;;14.15;6.72;;;;;;;;;;5139003;27;20050;-74
2022/03/29 14:40:04;;;;;;;10.32;5.30;;;;;;;;;;5113297;27;20056;-73
2022/03/29 14:42:30;;;;;;;18.70;5.38;;;;;;;;;;5118048;27;20049;-73
2022/03/29 14:44:57;;;;;;;15.07;5.28;;;;;;;;;;5117107;27;20040;-74
2022/03/29 14:47:24;;;;;;;20.75;7.68;;;;;;;;;;5139183;27;20571;-73
2022/03/29 14:49:50;;;;;;;17.38;6.85;;;;;;;;;;5120405;27;20521;-73
2022/03/29 14:52:19;;;;;;;24.50;7.28;;;;;;;;;;5117928;27;20863;-73
2022/03/29 14:54:45;;;;;;;18.88;7.55;;;;;;;;;;5118679;27;20441;-73
2022/03/29 14:57:11;;;;;;;23.83;7.97;;;;;;;;;;5119853;27;20913;-73
2022/03/29 14:59:38;;;;;;;14.13;6.40;;;;;;;;;;5133827;27;20326;-73
2022/03/29 15:02:05;;;;;;;17.05;6.05;;;;;;;;;;5133724;27;20194;-73
2022/03/29 15:04:31;;;;;;;21.38;9.10;;;;;;;;;;5134819;27;20042;-74
2022/03/29 15:06:58;;;;;;;21.05;7.68;;;;;;;;;;5136993;27;20513;-74
2022/03/29 15:09:24;;;;;;;22.45;8.70;;;;;;;;;;5117220;27;20035;-73
2022/03/29 15:11:50;;;;;;;18.65;7.32;;;;;;;;;;5120208;27;20051;-73
2022/03/29 15:14:16;;;;;;;21.63;7.90;;;;;;;;;;5114569;27;20040;-73
2022/03/29 15:16:42;;;;;;;23.77;8.82;;;;;;;;;;5118962;27;20492;-73
2022/03/29 15:19:10;;;;;;;25.58;9.32;;;;;;;;;;5116594;27;20047;-74
2022/03/29 15:21:36;;;;;;;17.80;6.55;;;;;;;;;;5121930;27;20035;-73
2022/03/29 15:24:03;;;;;;;28.13;8.75;;;;;;;;;;5118852;27;20100;-73
2022/03/29 15:26:29;;;;;;;23.00;8.23;;;;;;;;;;5117611;27;20035;-74
2022/03/29 15:28:55;;;;;;;16.02;7.20;;;;;;;;;;5134249;27;20044;-73
2022/03/29 15:31:21;;;;;;;16.08;10.65;;;;;;;;;;5136573;27;20188;-73
2022/03/29 15:33:47;;;;;;;21.15;6.75;;;;;;;;;;5122400;27;20038;-74
2022/03/29 15:36:14;;;;;;;25.40;7.13;;;;;;;;;;5140717;27;20043;-74
2022/03/29 15:38:42;;;;;;;19.08;6.43;;;;;;;;;;5138176;27;20042;-74
2022/03/29 15:41:08;;;;;;;13.18;5.45;;;;;;;;;;5118121;27;20036;-75
2022/03/29 15:43:35;;;;;;;19.73;5.28;;;;;;;;;;5115602;27;22456;-74
2022/03/29 15:46:03;;;;;;;15.38;4.65;;;;;;;;;;5136300;27;20047;-74
2022/03/29 15:48:32;;;;;;;12.05;4.03;;;;;;;;;;5139732;27;20061;-74
2022/03/29 15:50:58;;;;;;;12.65;5.47;;;;;;;;;;5118796;27;20050;-74
2022/03/29 15:53:26;;;;;;;13.63;4.25;;;;;;;;;;5135374;27;20051;-75
2022/03/29 15:55:53;;;;;;;16.27;6.70;;;;;;;;;;5120910;27;20036;-73
2022/03/29 15:58:22;;;;;;;16.25;4.95;;;;;;;;;;5137486;27;20101;-74
2022/03/29 16:00:48;;;;;;;13.48;5.85;;;;;;;;;;5136149;27;20031;-74
2022/03/29 16:03:14;;;;;;;22.63;8.98;;;;;;;;;;5116069;27;20196;-74
2022/03/29 16:05:41;;;;;;;25.13;10.00;;;;;;;;;;5131679;27;20495;-74
2022/03/29 16:08:08;;;;;;;18.65;7.30;;;;;;;;;;5121208;27;20056;-74